Time;durP1;ratioP1;P1;durP2;ratioP2;P2;SDS_P1;SDS_P2;PMS_P1;PMS_P2;Temp;Humidity;BMP_temperature;BMP_pressure;BME280_temperature;BME280_humidity;BME280_pressure;Samples;Min_cycle;Max_cycle;Signal;HPM_P1;HPM_P2
2023/04/19 00:00:43;;;;;;;6.10;3.03;;;4.80;99.90;;;;;;10259496;29;20214;-83
2023/04/19 00:06:25;;;;;;;9.13;3.00;;;4.80;99.90;;;;;;10288209;28;20207;-83
2023/04/19 00:11:46;;;;;;;6.43;2.93;;;4.80;99.90;;;;;;10317949;28;20221;-83
2023/04/19 00:17:07;;;;;;;8.77;3.23;;;4.70;99.90;;;;;;10298486;28;20214;-84
2023/04/19 00:22:29;;;;;;;5.90;3.00;;;4.70;99.90;;;;;;10328482;28;20210;-84
2023/04/19 00:27:51;;;;;;;8.00;2.97;;;4.70;99.90;;;;;;10318609;28;20209;-83
2023/04/19 00:33:14;;;;;;;5.87;2.93;;;4.60;99.90;;;;;;10368237;28;20243;-83
2023/04/19 00:38:35;;;;;;;8.27;3.10;;;4.80;99.90;;;;;;10317715;28;20198;-82
2023/04/19 00:43:56;;;;;;;7.53;3.13;;;4.80;99.90;;;;;;10332076;28;20209;-82
2023/04/19 00:49:20;;;;;;;7.53;3.30;;;4.80;99.90;;;;;;10319204;28;20409;-82
2023/04/19 00:54:44;;;;;;;10.37;3.83;;;4.80;99.90;;;;;;10316247;28;20310;-82
2023/04/19 01:00:08;;;;;;;10.33;3.23;;;4.70;99.90;;;;;;10278924;29;20194;-83
2023/04/19 01:05:29;;;;;;;11.70;4.03;;;4.60;99.90;;;;;;10282298;28;20248;-83
2023/04/19 01:10:51;;;;;;;9.47;3.33;;;4.60;99.90;;;;;;10292090;28;20408;-83
2023/04/19 01:16:12;;;;;;;8.67;2.73;;;4.60;99.90;;;;;;10317357;28;20238;-83
2023/04/19 01:21:39;;;;;;;7.77;3.57;;;4.70;99.90;;;;;;10336688;28;20209;-83
2023/04/19 01:27:03;;;;;;;11.27;3.50;;;4.70;99.90;;;;;;10309645;28;20459;-83
2023/04/19 01:32:25;;;;;;;6.00;3.00;;;4.70;99.90;;;;;;10313316;28;20233;-83
2023/04/19 01:37:49;;;;;;;7.23;3.37;;;4.70;99.90;;;;;;10293338;28;20210;-83
2023/04/19 01:43:16;;;;;;;9.63;3.50;;;4.70;99.90;;;;;;10297023;28;20726;-84
2023/04/19 01:48:38;;;;;;;6.57;3.23;;;4.70;99.90;;;;;;10276788;28;20202;-83
2023/04/19 01:54:00;;;;;;;8.70;3.17;;;4.80;99.90;;;;;;10318960;28;20233;-84
2023/04/19 01:59:21;;;;;;;9.47;3.77;;;4.80;99.90;;;;;;10330261;28;20257;-83
2023/04/19 02:04:44;;;;;;;11.77;3.47;;;4.90;99.90;;;;;;10303211;28;20213;-82
2023/04/19 02:10:08;;;;;;;8.63;3.47;;;4.90;99.90;;;;;;10304379;28;20194;-83
2023/04/19 02:15:29;;;;;;;8.57;3.57;;;4.90;99.90;;;;;;10276037;29;20217;-83
2023/04/19 02:20:51;;;;;;;8.07;3.47;;;4.80;99.90;;;;;;10303732;28;20288;-84
2023/04/19 02:26:13;;;;;;;7.40;2.90;;;4.70;99.90;;;;;;10315463;28;20209;-83
2023/04/19 02:31:35;;;;;;;8.53;4.47;;;4.70;99.90;;;;;;10336477;28;20225;-84
2023/04/19 02:37:09;;;;;;;7.17;3.97;;;4.60;99.90;;;;;;10301809;28;20235;-83
2023/04/19 02:42:30;;;;;;;9.23;3.50;;;4.50;99.90;;;;;;10299600;28;20353;-84
2023/04/19 02:47:52;;;;;;;7.73;3.60;;;4.40;99.90;;;;;;10277165;28;20206;-83
2023/04/19 02:53:14;;;;;;;7.57;3.40;;;4.30;99.90;;;;;;10294058;28;20233;-83
2023/04/19 02:58:35;;;;;;;15.70;3.70;;;4.40;99.90;;;;;;10288312;28;20222;-83
2023/04/19 03:03:58;;;;;;;9.43;3.50;;;4.40;99.90;;;;;;10289502;28;20205;-84
2023/04/19 03:09:20;;;;;;;8.23;3.83;;;4.30;99.90;;;;;;10276688;28;20508;-82
2023/04/19 03:14:41;;;;;;;12.43;4.73;;;4.30;99.90;;;;;;10287688;28;20252;-83
2023/04/19 03:20:10;;;;;;;20.60;7.20;;;4.30;99.90;;;;;;10293144;28;20201;-82
2023/04/19 03:25:32;;;;;;;14.20;5.20;;;4.30;99.90;;;;;;10316158;28;20209;-84
2023/04/19 03:31:08;;;;;;;21.13;11.07;;;4.10;99.90;;;;;;10336757;28;20283;-82
2023/04/19 03:36:30;;;;;;;12.47;7.43;;;4.40;99.90;;;;;;10327373;28;20196;-82
2023/04/19 03:41:51;;;;;;;10.37;4.67;;;4.40;99.90;;;;;;10312319;28;20504;-82
2023/04/19 03:47:27;;;;;;;11.90;5.73;;;4.50;99.90;;;;;;10313158;28;20519;-83
2023/04/19 03:52:50;;;;;;;12.70;5.80;;;4.50;99.90;;;;;;10311127;28;20237;-83
2023/04/19 03:58:11;;;;;;;10.97;5.20;;;4.50;99.90;;;;;;10262553;28;20308;-83
2023/04/19 04:03:53;;;;;;;10.53;4.77;;;4.50;99.90;;;;;;10284763;28;20445;-82
2023/04/19 04:09:15;;;;;;;10.77;4.73;;;4.40;99.90;;;;;;10294147;28;20489;-82
2023/04/19 04:14:37;;;;;;;9.90;4.43;;;4.40;99.90;;;;;;10297732;28;20233;-85
2023/04/19 04:20:00;;;;;;;9.90;3.80;;;4.40;99.90;;;;;;10298494;28;20278;-82
2023/04/19 04:25:24;;;;;;;16.10;4.27;;;4.40;99.90;;;;;;10332665;28;20220;-82
2023/04/19 04:30:46;;;;;;;15.27;4.37;;;4.60;99.90;;;;;;10345047;28;20201;-83
2023/04/19 04:36:10;;;;;;;14.10;4.40;;;4.60;99.90;;;;;;10284688;28;20205;-83
2023/04/19 04:41:34;;;;;;;13.97;4.10;;;4.60;99.90;;;;;;10304670;28;20314;-81
2023/04/19 04:46:57;;;;;;;16.00;4.43;;;4.70;99.90;;;;;;10319108;28;20260;-82
2023/04/19 04:52:20;;;;;;;9.40;4.53;;;4.70;99.90;;;;;;10309267;28;20253;-83
2023/04/19 04:57:51;;;;;;;11.60;5.10;;;4.80;99.90;;;;;;10278522;28;20258;-82
2023/04/19 05:03:22;;;;;;;11.90;5.07;;;4.90;99.90;;;;;;10268498;28;20233;-82
2023/04/19 05:08:49;;;;;;;10.57;4.70;;;5.00;99.90;;;;;;10265873;28;20198;-83
2023/04/19 05:14:19;;;;;;;8.83;4.50;;;4.90;99.90;;;;;;10281846;28;20230;-82
2023/04/19 05:19:41;;;;;;;10.60;5.90;;;5.10;99.90;;;;;;10277887;28;20401;-82
2023/04/19 05:25:04;;;;;;;37.40;9.03;;;5.20;99.90;;;;;;10328684;28;20218;-81
2023/04/19 05:30:26;;;;;;;17.17;6.20;;;5.40;99.90;;;;;;10342148;28;20543;-82
2023/04/19 05:35:47;;;;;;;14.23;4.53;;;5.60;99.90;;;;;;10330407;28;20208;-82
2023/04/19 05:41:10;;;;;;;10.70;5.30;;;5.80;99.90;;;;;;10317254;28;20221;-82
2023/04/19 05:46:31;;;;;;;13.60;5.10;;;6.00;99.90;;;;;;10279165;28;20207;-82
2023/04/19 05:51:54;;;;;;;15.87;5.33;;;6.20;99.90;;;;;;10296156;28;20234;-81
2023/04/19 05:57:41;;;;;;;14.20;5.23;;;6.30;99.90;;;;;;10276310;28;20519;-82
2023/04/19 06:03:03;;;;;;;8.27;4.00;;;6.50;99.90;;;;;;10279569;28;20494;-82
2023/04/19 06:08:24;;;;;;;12.67;4.83;;;6.80;99.90;;;;;;10289677;28;20190;-81
2023/04/19 06:13:49;;;;;;;9.80;4.60;;;7.10;99.90;;;;;;10278968;28;20306;-82
2023/04/19 06:19:12;;;;;;;9.33;3.53;;;7.80;99.90;;;;;;10288844;28;20196;-81
2023/04/19 06:24:33;;;;;;;14.53;4.87;;;8.40;99.90;;;;;;10313201;28;20396;-83
2023/04/19 06:29:55;;;;;;;13.63;5.70;;;9.00;97.30;;;;;;10321990;28;20196;-82
2023/04/19 06:35:16;;;;;;;10.67;3.73;;;9.20;97.40;;;;;;10302986;28;20238;-82
2023/04/19 06:40:38;;;;;;;16.40;6.80;;;10.10;92.80;;;;;;10288168;28;20274;-83
2023/04/19 06:46:01;;;;;;;14.77;4.97;;;10.70;54.50;;;;;;10274854;28;20203;-83
2023/04/19 06:51:22;;;;;;;10.13;4.47;;;11.60;41.00;;;;;;10294482;28;20231;-83
2023/04/19 06:56:46;;;;;;;24.43;9.77;;;12.00;29.60;;;;;;10300475;28;20242;-83
2023/04/19 07:02:07;;;;;;;27.83;11.23;;;12.10;27.10;;;;;;10319727;28;20239;-83
2023/04/19 07:07:28;;;;;;;14.37;4.20;;;12.00;24.90;;;;;;10286270;28;20212;-83
2023/04/19 07:12:50;;;;;;;20.43;8.93;;;12.40;23.30;;;;;;10277106;28;20231;-83
2023/04/19 07:18:14;;;;;;;23.07;9.00;;;12.90;21.70;;;;;;10273417;29;20205;-83
2023/04/19 07:23:36;;;;;;;19.27;6.83;;;13.50;18.90;;;;;;10297980;28;20354;-81
2023/04/19 07:28:57;;;;;;;9.10;3.80;;;14.10;16.20;;;;;;10316825;28;20521;-81
2023/04/19 07:34:19;;;;;;;8.33;4.67;;;14.00;15.80;;;;;;10287896;28;20241;-84
2023/04/19 07:39:40;;;;;;;10.87;3.87;;;14.10;14.40;;;;;;10305028;28;20436;-82
2023/04/19 07:45:01;;;;;;;9.75;5.10;;;14.30;14.00;;;;;;10295088;28;20298;-85
2023/04/19 07:50:25;;;;;;;13.45;3.65;;;14.90;13.70;;;;;;10279670;28;20393;-83
2023/04/19 07:55:47;;;;;;;8.57;3.47;;;15.30;24.60;;;;;;10278845;28;20255;-81
2023/04/19 08:01:08;;;;;;;19.33;6.68;;;14.90;23.60;;;;;;10275321;28;20243;-82
2023/04/19 08:06:30;;;;;;;11.57;4.90;;;14.90;23.20;;;;;;10314619;28;20228;-82
2023/04/19 08:11:52;;;;;;;16.27;8.60;;;14.70;26.60;;;;;;10324692;28;20227;-82
2023/04/19 08:17:15;;;;;;;18.77;8.77;;;15.10;24.10;;;;;;10314926;28;20269;-82
2023/04/19 08:22:39;;;;;;;14.45;7.05;;;15.00;22.10;;;;;;10336710;28;20205;-81
2023/04/19 08:28:01;;;;;;;21.75;9.13;;;15.10;20.90;;;;;;10320504;28;20205;-83
2023/04/19 08:33:22;;;;;;;16.42;6.60;;;15.20;19.70;;;;;;10335758;28;20264;-82
2023/04/19 08:38:43;;;;;;;14.18;6.53;;;15.10;18.40;;;;;;10308589;28;20262;-82
2023/04/19 08:44:09;;;;;;;8.93;3.92;;;15.50;18.40;;;;;;10326408;28;20215;-82
2023/04/19 08:49:37;;;;;;;11.00;4.00;;;16.20;16.60;;;;;;10316218;28;20286;-81
2023/04/19 08:55:07;;;;;;;10.40;4.90;;;14.90;17.50;;;;;;10325831;28;20309;-82
2023/04/19 09:00:28;;;;;;;11.40;3.78;;;15.10;18.00;;;;;;10330045;28;20245;-81
2023/04/19 09:05:49;;;;;;;9.90;4.70;;;14.60;17.70;;;;;;10312182;28;20216;-81
2023/04/19 09:11:11;;;;;;;7.77;3.90;;;13.80;19.20;;;;;;10313143;28;20210;-81
2023/04/19 09:16:32;;;;;;;9.97;4.67;;;13.00;20.30;;;;;;10298444;28;20220;-82
2023/04/19 09:21:53;;;;;;;8.03;4.53;;;12.60;21.40;;;;;;10308460;28;20288;-81
2023/04/19 09:27:32;;;;;;;9.10;4.90;;;12.00;26.60;;;;;;10289120;28;20292;-82
2023/04/19 09:32:53;;;;;;;10.60;4.80;;;11.10;99.90;;;;;;10276257;28;20325;-82
2023/04/19 09:38:15;;;;;;;10.47;4.93;;;10.60;99.30;;;;;;10315276;28;20225;-83
2023/04/19 09:43:36;;;;;;;8.93;4.20;;;10.60;99.90;;;;;;10307399;28;20794;-83
2023/04/19 09:49:23;;;;;;;8.30;4.50;;;;;;;;;;10328391;28;20253;-82
2023/04/19 09:54:48;;;;;;;7.33;4.53;;;10.10;99.90;;;;;;10270347;28;20240;-80
2023/04/19 10:00:12;;;;;;;12.87;5.80;;;10.00;99.90;;;;;;10288979;28;20211;-82
2023/04/19 10:05:35;;;;;;;11.20;6.03;;;10.00;99.90;;;;;;10273189;28;20219;-83
2023/04/19 10:10:56;;;;;;;7.13;5.37;;;10.00;99.90;;;;;;10279149;28;20216;-82
2023/04/19 10:16:19;;;;;;;8.33;5.17;;;9.90;99.90;;;;;;10324705;28;20221;-83
2023/04/19 10:21:42;;;;;;;13.97;5.60;;;9.50;99.90;;;;;;10295215;28;20197;-83
2023/04/19 10:27:13;;;;;;;8.87;5.57;;;9.10;99.90;;;;;;10298323;28;20234;-81
2023/04/19 10:32:46;;;;;;;11.27;5.10;;;8.70;99.90;;;;;;10292936;28;20277;-82
2023/04/19 10:38:20;;;;;;;13.03;5.33;;;8.20;99.90;;;;;;10297896;28;20205;-81
2023/04/19 10:44:09;;;;;;;7.97;5.40;;;7.90;99.90;;;;;;10285266;28;20235;-82
2023/04/19 10:49:30;;;;;;;18.23;8.77;;;7.60;99.90;;;;;;10293268;28;20239;-82
2023/04/19 10:54:55;;;;;;;14.83;8.03;;;7.50;99.90;;;;;;10272596;28;20253;-81
2023/04/19 11:00:24;;;;;;;15.60;9.37;;;7.30;99.90;;;;;;10277794;28;20237;-81
2023/04/19 11:06:04;;;;;;;10.80;6.03;;;;;;;;;;10300992;28;20239;-82
2023/04/19 11:11:26;;;;;;;9.23;5.27;;;7.00;99.90;;;;;;10290224;28;20502;-83
2023/04/19 11:16:48;;;;;;;8.97;5.70;;;7.20;99.90;;;;;;10306508;28;20221;-82
2023/04/19 11:22:09;;;;;;;10.20;5.10;;;7.00;99.90;;;;;;10309630;28;21042;-82
2023/04/19 11:27:31;;;;;;;6.63;4.40;;;6.90;99.90;;;;;;10310784;28;20190;-84
2023/04/19 11:32:54;;;;;;;8.60;5.30;;;6.60;99.90;;;;;;10291703;28;20244;-92
2023/04/19 11:38:15;;;;;;;20.60;10.40;;;6.50;99.90;;;;;;10298315;28;20199;-83
2023/04/19 11:43:37;;;;;;;8.90;6.40;;;6.30;99.90;;;;;;10262436;28;20219;-88
2023/04/19 11:48:58;;;;;;;9.77;5.97;;;6.40;99.90;;;;;;10284992;28;20231;-83
2023/04/19 11:54:22;;;;;;;10.83;6.93;;;6.20;99.90;;;;;;10282297;28;20243;-82
2023/04/19 12:00:09;;;;;;;10.13;7.77;;;6.50;99.90;;;;;;10288039;28;20200;-85
2023/04/19 12:05:34;;;;;;;15.70;8.80;;;6.50;99.90;;;;;;10303283;28;20510;-83
2023/04/19 12:10:57;;;;;;;13.47;7.83;;;6.60;99.90;;;;;;10320235;28;20257;-83
2023/04/19 12:16:27;;;;;;;15.50;8.70;;;6.90;99.90;;;;;;10323465;28;20240;-84
2023/04/19 12:21:48;;;;;;;19.40;7.10;;;7.30;99.90;;;;;;10290652;28;20199;-81
2023/04/19 12:27:10;;;;;;;14.13;7.23;;;7.40;99.90;;;;;;10312579;28;20219;-83
2023/04/19 12:32:31;;;;;;;19.70;8.30;;;7.70;99.90;;;;;;10329864;28;20231;-82
2023/04/19 12:37:57;;;;;;;18.50;9.80;;;7.80;99.90;;;;;;10308883;28;20237;-84
2023/04/19 12:43:18;;;;;;;16.03;7.07;;;8.00;99.90;;;;;;10326989;28;20424;-82
2023/04/19 12:48:40;;;;;;;13.13;7.30;;;8.20;99.90;;;;;;10300926;28;20228;-83
2023/04/19 12:54:01;;;;;;;11.30;6.37;;;8.30;99.90;;;;;;10312272;28;20235;-80
2023/04/19 12:59:22;;;;;;;18.33;7.53;;;8.40;99.90;;;;;;10327353;28;20224;-86
2023/04/19 13:04:44;;;;;;;14.33;6.50;;;8.40;99.90;;;;;;10313726;28;20261;-86
2023/04/19 13:10:06;;;;;;;11.83;6.27;;;8.50;99.90;;;;;;10313490;28;20214;-82
2023/04/19 13:15:30;;;;;;;11.97;6.27;;;8.40;99.90;;;;;;10311704;28;20287;-82
2023/04/19 13:20:52;;;;;;;13.23;7.00;;;8.70;99.90;;;;;;10315243;28;20217;-81
2023/04/19 13:26:14;;;;;;;13.60;6.80;;;8.90;99.90;;;;;;10300079;28;20310;-81
2023/04/19 13:31:35;;;;;;;14.53;6.20;;;9.10;99.90;;;;;;10300606;28;20395;-79
2023/04/19 13:36:57;;;;;;;12.03;5.83;;;9.10;99.90;;;;;;10290029;28;20204;-80
2023/04/19 13:42:18;;;;;;;16.47;7.50;;;9.10;99.90;;;;;;10297741;28;20242;-80
2023/04/19 13:47:39;;;;;;;17.80;7.20;;;9.00;99.90;;;;;;10296498;28;20228;-80
2023/04/19 13:53:01;;;;;;;9.60;5.40;;;9.00;99.90;;;;;;10311249;28;20459;-84
2023/04/19 13:58:25;;;;;;;16.47;5.97;;;8.90;99.90;;;;;;10292374;28;20249;-79
2023/04/19 14:03:47;;;;;;;14.40;6.73;;;8.80;99.90;;;;;;10310754;28;20255;-85
2023/04/19 14:09:09;;;;;;;14.97;7.90;;;8.80;99.90;;;;;;10307096;28;20287;-82
2023/04/19 14:14:30;;;;;;;18.43;8.13;;;8.90;99.90;;;;;;10287083;28;20313;-82
2023/04/19 14:19:52;;;;;;;20.37;9.13;;;8.90;99.90;;;;;;10303984;28;20210;-80
2023/04/19 14:25:14;;;;;;;20.27;8.60;;;8.90;99.90;;;;;;10318212;28;20208;-82
2023/04/19 14:30:35;;;;;;;16.27;8.83;;;8.90;99.90;;;;;;10313549;28;20212;-80
2023/04/19 14:35:56;;;;;;;20.53;9.60;;;8.90;99.90;;;;;;10285939;28;20453;-85
2023/04/19 14:41:17;;;;;;;14.77;7.93;;;8.90;99.90;;;;;;10298057;28;20288;-80
2023/04/19 14:46:39;;;;;;;23.00;10.53;;;8.90;99.90;;;;;;10301573;28;20283;-79
2023/04/19 14:52:00;;;;;;;36.43;13.23;;;9.00;99.90;;;;;;10304426;28;20427;-77
2023/04/19 14:57:21;;;;;;;19.90;9.27;;;9.00;99.90;;;;;;10278296;28;20467;-82
2023/04/19 15:02:43;;;;;;;14.67;7.77;;;9.10;99.90;;;;;;10282517;28;20364;-80
2023/04/19 15:08:04;;;;;;;21.77;9.13;;;9.10;99.90;;;;;;10309541;28;20210;-79
2023/04/19 15:13:28;;;;;;;27.03;13.87;;;9.30;99.90;;;;;;10311057;28;20434;-79
2023/04/19 15:18:51;;;;;;;58.10;29.63;;;9.40;99.90;;;;;;10322251;28;20206;-79
2023/04/19 15:24:12;;;;;;;68.30;30.77;;;9.50;99.90;;;;;;10303267;28;20200;-79
2023/04/19 15:29:34;;;;;;;92.33;33.93;;;9.60;99.90;;;;;;10329464;28;20213;-79
2023/04/19 15:34:55;;;;;;;45.47;21.33;;;9.60;99.90;;;;;;10342611;28;20235;-80
2023/04/19 15:40:17;;;;;;;31.17;13.53;;;9.70;99.90;;;;;;10310534;28;20455;-79
2023/04/19 15:45:38;;;;;;;20.90;10.53;;;9.70;99.90;;;;;;10307670;28;20211;-79
2023/04/19 15:51:00;;;;;;;18.37;9.27;;;9.80;99.90;;;;;;10323258;28;20227;-79
2023/04/19 15:56:22;;;;;;;15.17;8.43;;;9.90;99.90;;;;;;10315970;28;20428;-80
2023/04/19 16:01:43;;;;;;;13.20;7.13;;;9.90;99.90;;;;;;10308078;28;20354;-79
2023/04/19 16:07:05;;;;;;;13.50;6.63;;;10.00;99.90;;;;;;10317988;28;20204;-79
2023/04/19 16:12:26;;;;;;;13.23;7.37;;;10.00;99.90;;;;;;10284209;28;20208;-79
2023/04/19 16:17:48;;;;;;;17.13;8.13;;;10.00;99.90;;;;;;10322682;28;20215;-79
2023/04/19 16:23:09;;;;;;;18.40;9.97;;;10.00;99.90;;;;;;10306555;28;20226;-79
2023/04/19 16:28:30;;;;;;;18.23;10.53;;;9.90;99.90;;;;;;10324638;28;20279;-79
2023/04/19 16:33:52;;;;;;;21.27;10.50;;;9.90;99.90;;;;;;10330683;28;20253;-79
2023/04/19 16:39:13;;;;;;;21.50;9.70;;;9.90;99.90;;;;;;10319485;28;20203;-79
2023/04/19 16:44:34;;;;;;;17.13;8.83;;;9.90;99.90;;;;;;10319825;28;20288;-79
2023/04/19 16:49:56;;;;;;;18.90;9.47;;;9.80;99.90;;;;;;10319529;28;20191;-80
2023/04/19 16:55:18;;;;;;;18.37;8.73;;;9.70;99.90;;;;;;10316384;28;20234;-79
2023/04/19 17:00:39;;;;;;;15.73;7.83;;;9.60;99.90;;;;;;10305114;28;20197;-79
2023/04/19 17:06:00;;;;;;;20.80;11.03;;;9.50;99.90;;;;;;10331192;28;20512;-80
2023/04/19 17:11:22;;;;;;;22.93;10.37;;;9.40;99.90;;;;;;10332168;28;20274;-80
2023/04/19 17:16:43;;;;;;;16.37;7.93;;;9.40;99.90;;;;;;10303769;28;20229;-79
2023/04/19 17:22:05;;;;;;;14.40;8.10;;;9.30;99.90;;;;;;10317935;28;20203;-79
2023/04/19 17:27:26;;;;;;;19.00;8.77;;;9.10;99.90;;;;;;10316499;28;20207;-79
2023/04/19 17:32:48;;;;;;;17.77;9.30;;;9.00;99.90;;;;;;10333599;28;20425;-79
2023/04/19 17:38:11;;;;;;;16.70;8.87;;;9.00;99.90;;;;;;10329738;28;20203;-79
2023/04/19 17:43:34;;;;;;;20.20;8.90;;;8.90;99.90;;;;;;10331252;28;20202;-79
2023/04/19 17:48:55;;;;;;;18.30;9.30;;;8.80;99.90;;;;;;10326241;28;20280;-79
2023/04/19 17:54:16;;;;;;;17.10;8.00;;;8.80;99.90;;;;;;10302651;28;20228;-79
2023/04/19 17:59:38;;;;;;;19.27;9.20;;;8.80;99.90;;;;;;10329714;28;20496;-79
2023/04/19 18:05:00;;;;;;;14.50;8.20;;;8.70;99.90;;;;;;10302375;28;20442;-79
2023/04/19 18:10:21;;;;;;;15.53;7.60;;;8.70;99.90;;;;;;10315258;28;20392;-78
2023/04/19 18:15:42;;;;;;;15.40;7.70;;;8.60;99.90;;;;;;10331340;28;20236;-78
2023/04/19 18:21:05;;;;;;;18.37;8.10;;;8.60;99.90;;;;;;10331828;28;20238;-79
2023/04/19 18:26:38;;;;;;;13.80;7.57;;;8.50;99.90;;;;;;10315660;28;20275;-78
2023/04/19 18:31:59;;;;;;;15.63;8.17;;;8.50;99.90;;;;;;10321243;28;20364;-80
2023/04/19 18:37:21;;;;;;;17.83;7.87;;;8.50;99.90;;;;;;10315242;28;20333;-79
2023/04/19 18:42:42;;;;;;;17.93;8.60;;;8.50;99.90;;;;;;10330578;28;20197;-78
2023/04/19 18:48:03;;;;;;;22.13;9.93;;;8.60;99.90;;;;;;10327231;28;20252;-78
2023/04/19 18:53:27;;;;;;;60.47;39.23;;;8.60;99.90;;;;;;10314179;28;20300;-80
2023/04/19 18:58:48;;;;;;;51.63;26.07;;;8.70;99.90;;;;;;10312657;28;20314;-79
2023/04/19 19:04:17;;;;;;;119.03;56.37;;;8.70;99.90;;;;;;10314087;28;20222;-79
2023/04/19 19:09:47;;;;;;;45.23;23.70;;;8.70;99.90;;;;;;10313834;28;20211;-79
2023/04/19 19:15:14;;;;;;;43.20;21.53;;;8.70;99.90;;;;;;10330088;28;20229;-80
2023/04/19 19:20:36;;;;;;;41.57;18.43;;;8.70;99.90;;;;;;10312541;28;20287;-79
2023/04/19 19:25:57;;;;;;;111.80;51.60;;;8.70;99.90;;;;;;10312029;28;20430;-79
2023/04/19 19:31:19;;;;;;;50.10;26.97;;;8.80;99.90;;;;;;10351160;28;20208;-79
2023/04/19 19:36:42;;;;;;;46.63;18.43;;;8.80;99.90;;;;;;10356459;28;20232;-78
2023/04/19 19:42:03;;;;;;;37.10;14.87;;;8.90;99.90;;;;;;10320501;28;20209;-79
2023/04/19 19:47:28;;;;;;;35.37;14.27;;;8.90;99.90;;;;;;10326846;28;20275;-79
2023/04/19 19:52:49;;;;;;;21.07;10.50;;;8.90;99.90;;;;;;10298690;28;20213;-79
2023/04/19 19:58:11;;;;;;;15.60;9.37;;;9.00;99.90;;;;;;10307350;28;20239;-79
2023/04/19 20:03:46;;;;;;;43.33;18.50;;;9.00;99.90;;;;;;10312764;28;20211;-79
2023/04/19 20:09:08;;;;;;;19.00;10.03;;;8.90;99.90;;;;;;10308761;28;20214;-79
2023/04/19 20:14:29;;;;;;;17.07;7.93;;;8.70;99.90;;;;;;10299251;28;20547;-80
2023/04/19 20:19:53;;;;;;;11.07;6.70;;;8.60;99.90;;;;;;10329007;28;20200;-79
2023/04/19 20:25:14;;;;;;;12.70;7.47;;;8.50;99.90;;;;;;10310855;28;20579;-80
2023/04/19 20:30:36;;;;;;;13.83;7.27;;;8.50;99.90;;;;;;10354700;28;20204;-80
2023/04/19 20:35:59;;;;;;;20.43;10.33;;;8.50;99.90;;;;;;10369015;28;20233;-78
2023/04/19 20:41:21;;;;;;;22.83;12.20;;;8.60;99.90;;;;;;10300232;28;20367;-79
2023/04/19 20:46:42;;;;;;;14.63;9.80;;;8.70;99.90;;;;;;10281972;28;20209;-79
2023/04/19 20:52:05;;;;;;;15.83;8.57;;;8.80;99.90;;;;;;10281890;28;20310;-79
2023/04/19 20:57:26;;;;;;;25.93;12.63;;;8.90;99.90;;;;;;10312544;28;20241;-79
2023/04/19 21:02:48;;;;;;;17.63;10.57;;;9.00;99.90;;;;;;10318365;28;20193;-79
2023/04/19 21:08:09;;;;;;;30.23;12.83;;;9.10;99.90;;;;;;10332548;28;20202;-79
2023/04/19 21:13:34;;;;;;;20.73;11.67;;;9.10;99.90;;;;;;10300835;28;20240;-79
2023/04/19 21:18:55;;;;;;;14.87;8.83;;;9.10;99.90;;;;;;10318259;28;20472;-79
2023/04/19 21:24:16;;;;;;;13.53;8.33;;;9.00;99.90;;;;;;10309154;28;20508;-78
2023/04/19 21:29:37;;;;;;;16.03;9.03;;;8.80;99.90;;;;;;10317260;28;20226;-79
2023/04/19 21:35:00;;;;;;;19.20;9.83;;;8.80;99.90;;;;;;10317698;28;20282;-79
2023/04/19 21:40:21;;;;;;;15.80;9.80;;;8.70;99.90;;;;;;10329193;28;20218;-79
2023/04/19 21:45:42;;;;;;;12.70;8.97;;;8.70;99.90;;;;;;10331278;28;20205;-79
2023/04/19 21:51:04;;;;;;;11.80;7.90;;;8.70;99.90;;;;;;10330150;28;20354;-79
2023/04/19 21:56:25;;;;;;;11.53;7.90;;;8.80;99.90;;;;;;10316037;28;20392;-79
2023/04/19 22:01:46;;;;;;;12.87;8.27;;;8.70;99.90;;;;;;10319458;28;20391;-79
2023/04/19 22:07:08;;;;;;;14.87;9.60;;;8.70;99.90;;;;;;10330430;28;20202;-79
2023/04/19 22:12:29;;;;;;;15.57;10.17;;;8.60;99.90;;;;;;10330349;28;20199;-79
2023/04/19 22:17:51;;;;;;;21.20;10.73;;;8.50;99.90;;;;;;10317022;28;20227;-79
2023/04/19 22:23:12;;;;;;;22.73;11.00;;;8.40;99.90;;;;;;10302306;28;20350;-79
2023/04/19 22:28:34;;;;;;;17.27;10.60;;;8.30;99.90;;;;;;10333129;28;20247;-79
2023/04/19 22:33:55;;;;;;;19.40;10.53;;;8.30;99.90;;;;;;10315422;28;20222;-79
2023/04/19 22:39:17;;;;;;;19.43;11.40;;;8.20;99.90;;;;;;10331153;28;20262;-79
2023/04/19 22:44:38;;;;;;;18.27;10.73;;;8.10;99.90;;;;;;10308334;28;20259;-79
2023/04/19 22:50:00;;;;;;;15.33;10.13;;;8.00;99.90;;;;;;10328491;28;20213;-79
2023/04/19 22:55:22;;;;;;;20.47;10.83;;;8.10;99.90;;;;;;10300541;28;20323;-79
2023/04/19 23:00:43;;;;;;;17.50;10.33;;;8.00;99.90;;;;;;10317158;28;20202;-79
2023/04/19 23:06:05;;;;;;;16.63;10.17;;;8.10;99.90;;;;;;10298721;28;20420;-79
2023/04/19 23:11:28;;;;;;;13.57;10.00;;;8.10;99.90;;;;;;10326960;28;20189;-78
2023/04/19 23:16:53;;;;;;;16.00;10.53;;;8.20;99.90;;;;;;10321207;28;20236;-79
2023/04/19 23:22:15;;;;;;;15.43;8.73;;;8.20;99.90;;;;;;10313779;28;20213;-79
2023/04/19 23:27:36;;;;;;;15.23;9.90;;;8.20;99.90;;;;;;10313984;28;20440;-79
2023/04/19 23:32:57;;;;;;;14.07;9.93;;;8.30;99.90;;;;;;10350522;28;20201;-79
2023/04/19 23:38:19;;;;;;;14.13;9.27;;;8.40;99.90;;;;;;10317741;28;20507;-80
2023/04/19 23:43:40;;;;;;;11.30;7.87;;;8.40;99.90;;;;;;10369876;28;20429;-79
2023/04/19 23:49:02;;;;;;;13.60;8.60;;;8.50;99.90;;;;;;10333757;28;20240;-79
2023/04/19 23:54:25;;;;;;;13.00;8.00;;;8.50;99.90;;;;;;10326622;28;20229;-79
2023/04/19 23:59:46;;;;;;;15.87;9.60;;;8.50;99.90;;;;;;10310684;28;20441;-79
